sensor_id;sensor_type;location;lat;lon;timestamp;pressure;altitude;pressure_sealevel;temperature;humidity
37132;BME280;23035;50.032;21.978;2023-01-30T00:01:32;65069.31;;;-0.99;100.00
37132;BME280;23035;50.032;21.978;2023-01-30T00:06:41;65075.91;;;-0.88;100.00
37132;BME280;23035;50.032;21.978;2023-01-30T00:11:47;65059.75;;;-1.08;100.00
37132;BME280;23035;50.032;21.978;2023-01-30T00:16:52;65013.03;;;-1.53;100.00
37132;BME280;23035;50.032;21.978;2023-01-30T00:21:58;65068.25;;;-1.00;100.00
37132;BME280;23035;50.032;21.978;2023-01-30T00:27:02;65035.84;;;-1.31;100.00
37132;BME280;23035;50.032;21.978;2023-01-30T00:32:07;65013.03;;;-1.53;100.00
37132;BME280;23035;50.032;21.978;2023-01-30T00:37:16;65071.44;;;-0.97;100.00
37132;BME280;23035;50.032;21.978;2023-01-30T00:42:20;65085.78;;;-0.83;100.00
37132;BME280;23035;50.032;21.978;2023-01-30T00:47:42;65036.81;;;-1.32;100.00
37132;BME280;23035;50.032;21.978;2023-01-30T00:52:48;65065.06;;;-1.03;100.00
37132;BME280;23035;50.032;21.978;2023-01-30T00:57:53;65088.66;;;-0.75;100.00
37132;BME280;23035;50.032;21.978;2023-01-30T01:02:57;65058.69;;;-1.09;100.00
37132;BME280;23035;50.032;21.978;2023-01-30T01:08:04;65129.34;;;-0.41;100.00
37132;BME280;23035;50.032;21.978;2023-01-30T01:13:11;65090.03;;;-0.79;100.00
37132;BME280;23035;50.032;21.978;2023-01-30T01:18:16;65075.69;;;-0.93;100.00
37132;BME280;23035;50.032;21.978;2023-01-30T01:23:23;65088.84;;;-0.82;100.00
37132;BME280;23035;50.032;21.978;2023-01-30T01:28:27;65063.47;;;-1.04;100.00
37132;BME280;23035;50.032;21.978;2023-01-30T01:33:32;65167.63;;;-0.05;100.00
37132;BME280;23035;50.032;21.978;2023-01-30T01:38:40;65098.84;;;-0.75;100.00
37132;BME280;23035;50.032;21.978;2023-01-30T01:44:03;65101.19;;;-0.68;100.00
37132;BME280;23035;50.032;21.978;2023-01-30T01:49:13;65142.31;;;-0.24;100.00
37132;BME280;23035;50.032;21.978;2023-01-30T01:54:26;65120.44;;;-0.47;100.00
37132;BME280;23035;50.032;21.978;2023-01-30T01:59:36;65075.25;;;-0.91;100.00
37132;BME280;23035;50.032;21.978;2023-01-30T02:04:45;65161.34;;;-0.08;100.00
37132;BME280;23035;50.032;21.978;2023-01-30T02:10:16;65128.19;;;-0.45;100.00
37132;BME280;23035;50.032;21.978;2023-01-30T02:15:22;65178.78;;;0.06;100.00
37132;BME280;23035;50.032;21.978;2023-01-30T02:20:30;65196.31;;;0.23;100.00
37132;BME280;23035;50.032;21.978;2023-01-30T02:31:31;65154.97;;;-0.14;100.00
37132;BME280;23035;50.032;21.978;2023-01-30T02:36:47;65161.13;;;-0.13;100.00
37132;BME280;23035;50.032;21.978;2023-01-30T02:42:00;65120.31;;;-0.50;100.00
37132;BME280;23035;50.032;21.978;2023-01-30T02:47:12;65167.50;;;-0.07;100.00
37132;BME280;23035;50.032;21.978;2023-01-30T02:52:18;65090.44;;;-0.81;100.00
37132;BME280;23035;50.032;21.978;2023-01-30T02:57:24;65113.50;;;-0.54;100.00
37132;BME280;23035;50.032;21.978;2023-01-30T03:03:03;65120.97;;;-0.47;100.00
37132;BME280;23035;50.032;21.978;2023-01-30T03:08:22;65044.03;;;-1.18;100.00
37132;BME280;23035;50.032;21.978;2023-01-30T03:13:41;65152.22;;;-0.19;100.00
37132;BME280;23035;50.032;21.978;2023-01-30T03:18:50;65174.00;;;0.02;100.00
37132;BME280;23035;50.032;21.978;2023-01-30T03:23:55;65166.66;;;-0.03;100.00
37132;BME280;23035;50.032;21.978;2023-01-30T03:29:00;65155.91;;;-0.16;100.00
37132;BME280;23035;50.032;21.978;2023-01-30T03:34:06;65069.84;;;-0.98;100.00
37132;BME280;23035;50.032;21.978;2023-01-30T03:39:11;65136.47;;;-0.30;100.00
37132;BME280;23035;50.032;21.978;2023-01-30T03:44:16;65169.84;;;0.00;100.00
37132;BME280;23035;50.032;21.978;2023-01-30T03:49:22;65196.22;;;0.20;100.00
37132;BME280;23035;50.032;21.978;2023-01-30T03:54:27;65088.66;;;-0.75;100.00
37132;BME280;23035;50.032;21.978;2023-01-30T03:59:32;65138.38;;;-0.33;100.00
37132;BME280;23035;50.032;21.978;2023-01-30T04:04:43;65142.41;;;-0.34;100.00
37132;BME280;23035;50.032;21.978;2023-01-30T04:09:48;65184.72;;;0.14;100.00
37132;BME280;23035;50.032;21.978;2023-01-30T04:14:54;65179.94;;;0.10;100.00
37132;BME280;23035;50.032;21.978;2023-01-30T04:20:21;65125.19;;;-0.43;100.00
37132;BME280;23035;50.032;21.978;2023-01-30T04:25:28;65132.13;;;-0.36;100.00
37132;BME280;23035;50.032;21.978;2023-01-30T04:30:33;65144.34;;;-0.24;100.00
37132;BME280;23035;50.032;21.978;2023-01-30T04:36:00;65079.41;;;-0.89;100.00
37132;BME280;23035;50.032;21.978;2023-01-30T04:41:06;65109.16;;;-0.61;100.00
37132;BME280;23035;50.032;21.978;2023-01-30T04:46:14;65094.81;;;-0.74;100.00
37132;BME280;23035;50.032;21.978;2023-01-30T04:51:20;65032.78;;;-1.31;100.00
37132;BME280;23035;50.032;21.978;2023-01-30T04:56:25;65100.53;;;-0.71;100.00
37132;BME280;23035;50.032;21.978;2023-01-30T05:01:31;65079.00;;;-0.87;100.00
37132;BME280;23035;50.032;21.978;2023-01-30T05:06:37;65059.63;;;-1.10;100.00
37132;BME280;23035;50.032;21.978;2023-01-30T05:11:42;65087.38;;;-0.81;100.00
37132;BME280;23035;50.032;21.978;2023-01-30T05:16:47;65061.97;;;-1.03;100.00
37132;BME280;23035;50.032;21.978;2023-01-30T05:21:53;65013.97;;;-1.54;100.00
37132;BME280;23035;50.032;21.978;2023-01-30T05:26:58;65026.53;;;-1.35;100.00
37132;BME280;23035;50.032;21.978;2023-01-30T05:32:03;65058.16;;;-1.09;100.00
37132;BME280;23035;50.032;21.978;2023-01-30T05:37:09;65096.63;;;-0.68;100.00
37132;BME280;23035;50.032;21.978;2023-01-30T05:42:14;65054.44;;;-1.13;100.00
37132;BME280;23035;50.032;21.978;2023-01-30T05:47:19;65016.22;;;-1.50;100.00
37132;BME280;23035;50.032;21.978;2023-01-30T05:52:25;65074.00;;;-0.97;100.00
37132;BME280;23035;50.032;21.978;2023-01-30T05:57:29;65098.00;;;-0.71;100.00
37132;BME280;23035;50.032;21.978;2023-01-30T06:02:34;65039.06;;;-1.28;100.00
37132;BME280;23035;50.032;21.978;2023-01-30T06:07:40;65014.09;;;-1.52;100.00
37132;BME280;23035;50.032;21.978;2023-01-30T06:12:45;65004.53;;;-1.61;100.00
37132;BME280;23035;50.032;21.978;2023-01-30T06:17:49;65075.06;;;-0.96;100.00
37132;BME280;23035;50.032;21.978;2023-01-30T06:22:55;65060.81;;;-1.07;100.00
37132;BME280;23035;50.032;21.978;2023-01-30T06:28:00;64988.19;;;-1.74;100.00
37132;BME280;23035;50.032;21.978;2023-01-30T06:33:04;65028.41;;;-1.38;100.00
37132;BME280;23035;50.032;21.978;2023-01-30T06:38:11;65014.09;;;-1.52;100.00
37132;BME280;23035;50.032;21.978;2023-01-30T06:43:16;65012.50;;;-1.53;100.00
37132;BME280;23035;50.032;21.978;2023-01-30T06:48:22;65033.63;;;-1.35;100.00
37132;BME280;23035;50.032;21.978;2023-01-30T06:53:28;65066.56;;;-1.04;100.00
37132;BME280;23035;50.032;21.978;2023-01-30T06:58:33;65067.19;;;-1.01;100.00
37132;BME280;23035;50.032;21.978;2023-01-30T07:03:37;65069.19;;;-1.01;100.00
37132;BME280;23035;50.032;21.978;2023-01-30T07:08:43;65042.13;;;-1.27;100.00
37132;BME280;23035;50.032;21.978;2023-01-30T07:13:48;65126.06;;;-0.47;100.00
37132;BME280;23035;50.032;21.978;2023-01-30T07:18:52;65139.44;;;-0.32;100.00
37132;BME280;23035;50.032;21.978;2023-01-30T07:24:00;65153.69;;;-0.20;100.00
37132;BME280;23035;50.032;21.978;2023-01-30T07:29:05;65130.84;;;-0.42;100.00
37132;BME280;23035;50.032;21.978;2023-01-30T07:34:09;65114.03;;;-0.53;100.00
37132;BME280;23035;50.032;21.978;2023-01-30T07:39:17;65147.50;;;-0.21;100.00
37132;BME280;23035;50.032;21.978;2023-01-30T07:44:23;65193.88;;;0.25;100.00
37132;BME280;23035;50.032;21.978;2023-01-30T07:49:27;65176.84;;;0.09;100.00
37132;BME280;23035;50.032;21.978;2023-01-30T07:54:33;65176.66;;;0.04;100.00
37132;BME280;23035;50.032;21.978;2023-01-30T07:59:38;65137.13;;;-0.39;100.00
37132;BME280;23035;50.032;21.978;2023-01-30T08:04:43;65149.66;;;-0.19;100.00
37132;BME280;23035;50.032;21.978;2023-01-30T08:09:49;65153.28;;;-0.18;100.00
37132;BME280;23035;50.032;21.978;2023-01-30T08:14:53;65202.16;;;0.28;100.00
37132;BME280;23035;50.032;21.978;2023-01-30T08:19:58;65181.44;;;0.09;100.00
37132;BME280;23035;50.032;21.978;2023-01-30T08:25:05;65175.16;;;0.05;100.00
37132;BME280;23035;50.032;21.978;2023-01-30T08:30:11;65198.97;;;0.25;100.00
37132;BME280;23035;50.032;21.978;2023-01-30T08:35:16;65221.31;;;0.47;100.00
37132;BME280;23035;50.032;21.978;2023-01-30T08:40:22;65195.59;;;0.30;100.00
37132;BME280;23035;50.032;21.978;2023-01-30T08:45:27;65178.88;;;0.09;100.00
37132;BME280;23035;50.032;21.978;2023-01-30T08:50:32;65170.28;;;-0.02;100.00
37132;BME280;23035;50.032;21.978;2023-01-30T08:55:39;65196.84;;;0.23;100.00
37132;BME280;23035;50.032;21.978;2023-01-30T09:00:43;65202.16;;;0.28;100.00
37132;BME280;23035;50.032;21.978;2023-01-30T09:05:53;65173.66;;;0.06;100.00
37132;BME280;23035;50.032;21.978;2023-01-30T09:11:01;65138.38;;;-0.33;100.00
37132;BME280;23035;50.032;21.978;2023-01-30T09:16:06;65157.94;;;-0.16;100.00
37132;BME280;23035;50.032;21.978;2023-01-30T09:21:11;65234.81;;;0.65;100.00
37132;BME280;23035;50.032;21.978;2023-01-30T09:26:18;65212.59;;;0.34;100.00
37132;BME280;23035;50.032;21.978;2023-01-30T09:31:22;65179.94;;;0.10;100.00
37132;BME280;23035;50.032;21.978;2023-01-30T09:36:27;65197.06;;;0.28;100.00
37132;BME280;23035;50.032;21.978;2023-01-30T09:42:00;65227.69;;;0.53;100.00
37132;BME280;23035;50.032;21.978;2023-01-30T09:47:10;65263.34;;;0.87;99.23
37132;BME280;23035;50.032;21.978;2023-01-30T09:52:22;65277.72;;;1.01;100.00
37132;BME280;23035;50.032;21.978;2023-01-30T09:57:30;65252.69;;;0.77;99.95
37132;BME280;23035;50.032;21.978;2023-01-30T10:02:40;65245.47;;;0.75;100.00
37132;BME280;23035;50.032;21.978;2023-01-30T10:08:04;65281.75;;;1.12;100.00
37132;BME280;23035;50.032;21.978;2023-01-30T10:13:25;65302.94;;;1.30;100.00
37132;BME280;23035;50.032;21.978;2023-01-30T10:24:31;65201.09;;;0.27;100.00
37132;BME280;23035;50.032;21.978;2023-01-30T10:29:45;65273.88;;;0.95;100.00
37132;BME280;23035;50.032;21.978;2023-01-30T10:34:52;65267.78;;;0.96;100.00
37132;BME280;23035;50.032;21.978;2023-01-30T10:40:04;65262.16;;;0.83;100.00
37132;BME280;23035;50.032;21.978;2023-01-30T10:45:20;65252.16;;;0.76;100.00
37132;BME280;23035;50.032;21.978;2023-01-30T10:50:33;65178.88;;;0.09;100.00
37132;BME280;23035;50.032;21.978;2023-01-30T10:55:45;65189.41;;;0.16;100.00
37132;BME280;23035;50.032;21.978;2023-01-30T11:00:57;65226.84;;;0.57;100.00
37132;BME280;23035;50.032;21.978;2023-01-30T11:06:06;65252.81;;;0.79;100.00
37132;BME280;23035;50.032;21.978;2023-01-30T11:11:25;65225.34;;;0.58;100.00
37132;BME280;23035;50.032;21.978;2023-01-30T11:16:46;65262.28;;;0.86;100.00
37132;BME280;23035;50.032;21.978;2023-01-30T11:21:52;65230.03;;;0.60;100.00
37132;BME280;23035;50.032;21.978;2023-01-30T11:27:09;65180.06;;;0.12;100.00
37132;BME280;23035;50.032;21.978;2023-01-30T11:32:25;65253.75;;;0.78;100.00
37132;BME280;23035;50.032;21.978;2023-01-30T11:37:32;65245.34;;;0.72;100.00
37132;BME280;23035;50.032;21.978;2023-01-30T11:42:43;65225.56;;;0.51;100.00
37132;BME280;23035;50.032;21.978;2023-01-30T11:47:51;65172.94;;;0.01;100.00
37132;BME280;23035;50.032;21.978;2023-01-30T11:53:18;65195.78;;;0.22;100.00
37132;BME280;23035;50.032;21.978;2023-01-30T11:58:23;65173.47;;;0.01;100.00
37132;BME280;23035;50.032;21.978;2023-01-30T12:03:40;65199.72;;;0.31;100.00
37132;BME280;23035;50.032;21.978;2023-01-30T12:08:51;65191.75;;;0.23;100.00
37132;BME280;23035;50.032;21.978;2023-01-30T12:14:05;65167.19;;;-0.03;100.00
37132;BME280;23035;50.032;21.978;2023-01-30T12:19:25;65207.91;;;0.32;100.00
37132;BME280;23035;50.032;21.978;2023-01-30T12:24:37;65228.34;;;0.56;100.00
37132;BME280;23035;50.032;21.978;2023-01-30T12:29:53;65204.94;;;0.34;100.00
37132;BME280;23035;50.032;21.978;2023-01-30T12:35:13;65225.16;;;0.53;100.00
37132;BME280;23035;50.032;21.978;2023-01-30T12:40:30;65193.25;;;0.22;100.00
37132;BME280;23035;50.032;21.978;2023-01-30T12:45:59;65158.91;;;-0.06;100.00
37132;BME280;23035;50.032;21.978;2023-01-30T12:51:16;65165.50;;;-0.07;100.00
37132;BME280;23035;50.032;21.978;2023-01-30T12:56:44;65143.81;;;-0.25;100.00
37132;BME280;23035;50.032;21.978;2023-01-30T13:02:15;65142.00;;;-0.32;100.00
37132;BME280;23035;50.032;21.978;2023-01-30T13:07:34;65153.69;;;-0.20;100.00
37132;BME280;23035;50.032;21.978;2023-01-30T13:12:46;65154.34;;;-0.17;100.00
37132;BME280;23035;50.032;21.978;2023-01-30T13:18:02;65145.50;;;-0.21;100.00
37132;BME280;23035;50.032;21.978;2023-01-30T13:23:16;65109.69;;;-0.60;100.00
37132;BME280;23035;50.032;21.978;2023-01-30T13:28:24;65088.44;;;-0.80;100.00
37132;BME280;23035;50.032;21.978;2023-01-30T13:33:31;65100.75;;;-0.66;100.00
37132;BME280;23035;50.032;21.978;2023-01-30T13:38:44;65173.47;;;0.01;100.00
37132;BME280;23035;50.032;21.978;2023-01-30T13:43:53;65185.16;;;0.12;100.00
37132;BME280;23035;50.032;21.978;2023-01-30T13:49:06;65111.28;;;-0.59;100.00
37132;BME280;23035;50.032;21.978;2023-01-30T13:54:31;65111.19;;;-0.49;100.00
37132;BME280;23035;50.032;21.978;2023-01-30T14:00:00;65094.38;;;-0.72;100.00
37132;BME280;23035;50.032;21.978;2023-01-30T14:11:00;65127.75;;;-0.43;100.00
37132;BME280;23035;50.032;21.978;2023-01-30T14:16:05;65174.97;;;0.00;100.00
37132;BME280;23035;50.032;21.978;2023-01-30T14:21:15;65161.22;;;-0.11;100.00
37132;BME280;23035;50.032;21.978;2023-01-30T14:32:09;65101.06;;;-0.71;100.00
37132;BME280;23035;50.032;21.978;2023-01-30T14:43:47;65165.81;;;-0.11;100.00
37132;BME280;23035;50.032;21.978;2023-01-30T14:49:01;65122.97;;;-0.47;100.00
37132;BME280;23035;50.032;21.978;2023-01-30T14:54:19;65166.66;;;-0.03;100.00
37132;BME280;23035;50.032;21.978;2023-01-30T14:59:37;65173.13;;;0.06;100.00
37132;BME280;23035;50.032;21.978;2023-01-30T15:04:47;65119.78;;;-0.50;100.00
37132;BME280;23035;50.032;21.978;2023-01-30T15:09:55;65071.44;;;-0.97;100.00
37132;BME280;23035;50.032;21.978;2023-01-30T15:15:10;65093.31;;;-0.73;100.00
37132;BME280;23035;50.032;21.978;2023-01-30T15:20:31;65034.78;;;-1.32;100.00
37132;BME280;23035;50.032;21.978;2023-01-30T15:25:49;65023.88;;;-1.37;100.00
37132;BME280;23035;50.032;21.978;2023-01-30T15:31:04;65038.09;;;-1.26;100.00
37132;BME280;23035;50.032;21.978;2023-01-30T15:36:34;65050.19;;;-1.17;100.00
37132;BME280;23035;50.032;21.978;2023-01-30T15:41:41;65034.78;;;-1.32;100.00
37132;BME280;23035;50.032;21.978;2023-01-30T15:46:49;65029.16;;;-1.32;100.00
37132;BME280;23035;50.032;21.978;2023-01-30T15:52:01;65010.06;;;-1.51;100.00
37132;BME280;23035;50.032;21.978;2023-01-30T15:57:12;65027.25;;;-1.41;100.00
37132;BME280;23035;50.032;21.978;2023-01-30T16:02:26;64950.41;;;-2.13;100.00
37132;BME280;23035;50.032;21.978;2023-01-30T16:07:33;65007.72;;;-1.58;100.00
37132;BME280;23035;50.032;21.978;2023-01-30T16:12:38;65012.59;;;-1.51;100.00
37132;BME280;23035;50.032;21.978;2023-01-30T16:17:54;65005.47;;;-1.62;100.00
37132;BME280;23035;50.032;21.978;2023-01-30T16:23:03;65019.41;;;-1.47;100.00
37132;BME280;23035;50.032;21.978;2023-01-30T16:28:07;65062.84;;;-1.07;100.00
37132;BME280;23035;50.032;21.978;2023-01-30T16:33:14;65064.53;;;-1.03;100.00
37132;BME280;23035;50.032;21.978;2023-01-30T16:38:33;65028.00;;;-1.36;100.00
37132;BME280;23035;50.032;21.978;2023-01-30T16:43:42;65062.09;;;-1.01;100.00
37132;BME280;23035;50.032;21.978;2023-01-30T16:48:46;65052.75;;;-1.05;100.00
37132;BME280;23035;50.032;21.978;2023-01-30T16:54:00;65083.13;;;-0.85;100.00
37132;BME280;23035;50.032;21.978;2023-01-30T16:59:12;65157.94;;;-0.16;100.00
37132;BME280;23035;50.032;21.978;2023-01-30T17:04:23;65113.09;;;-0.52;100.00
37132;BME280;23035;50.032;21.978;2023-01-30T17:09:36;65118.28;;;-0.49;100.00
37132;BME280;23035;50.032;21.978;2023-01-30T17:14:41;65138.38;;;-0.33;100.00
37132;BME280;23035;50.032;21.978;2023-01-30T17:19:46;65143.28;;;-0.25;100.00
37132;BME280;23035;50.032;21.978;2023-01-30T17:24:54;65091.63;;;-0.77;100.00
37132;BME280;23035;50.032;21.978;2023-01-30T17:30:01;65119.25;;;-0.51;100.00
37132;BME280;23035;50.032;21.978;2023-01-30T17:35:06;65174.53;;;0.02;100.00
37132;BME280;23035;50.032;21.978;2023-01-30T17:40:16;65130.31;;;-0.43;100.00
37132;BME280;23035;50.032;21.978;2023-01-30T17:45:21;65135.19;;;-0.36;100.00
37132;BME280;23035;50.032;21.978;2023-01-30T17:50:26;65078.47;;;-0.88;100.00
37132;BME280;23035;50.032;21.978;2023-01-30T17:55:33;65081.09;;;-0.85;100.00
37132;BME280;23035;50.032;21.978;2023-01-30T18:00:38;65080.56;;;-0.85;100.00
37132;BME280;23035;50.032;21.978;2023-01-30T18:05:42;65040.31;;;-1.22;100.00
37132;BME280;23035;50.032;21.978;2023-01-30T18:10:49;65053.38;;;-1.14;100.00
37132;BME280;23035;50.032;21.978;2023-01-30T18:15:58;65005.72;;;-1.57;100.00
37132;BME280;23035;50.032;21.978;2023-01-30T18:21:05;65007.41;;;-1.53;100.00
37132;BME280;23035;50.032;21.978;2023-01-30T18:26:11;65094.28;;;-0.75;100.00
37132;BME280;23035;50.032;21.978;2023-01-30T18:31:16;65068.25;;;-1.00;100.00
37132;BME280;23035;50.032;21.978;2023-01-30T18:36:22;65054.44;;;-1.13;100.00
37132;BME280;23035;50.032;21.978;2023-01-30T18:41:29;65103.31;;;-0.66;100.00
37132;BME280;23035;50.032;21.978;2023-01-30T18:46:34;65061.44;;;-1.04;100.00
37132;BME280;23035;50.032;21.978;2023-01-30T18:51:38;65103.75;;;-0.68;100.00
37132;BME280;23035;50.032;21.978;2023-01-30T18:56:44;65111.38;;;-0.56;100.00
37132;BME280;23035;50.032;21.978;2023-01-30T19:01:49;65125.19;;;-0.43;100.00
37132;BME280;23035;50.032;21.978;2023-01-30T19:06:54;65102.88;;;-0.64;100.00
37132;BME280;23035;50.032;21.978;2023-01-30T19:12:00;65122.97;;;-0.47;100.00
37132;BME280;23035;50.032;21.978;2023-01-30T19:17:22;65101.72;;;-0.68;100.00
37132;BME280;23035;50.032;21.978;2023-01-30T19:22:26;65214.28;;;0.38;100.00
37132;BME280;23035;50.032;21.978;2023-01-30T19:27:35;65178.88;;;0.09;100.00
37132;BME280;23035;50.032;21.978;2023-01-30T19:32:39;65267.50;;;0.89;100.00
37132;BME280;23035;50.032;21.978;2023-01-30T19:37:44;65248.44;;;0.73;100.00
37132;BME280;23035;50.032;21.978;2023-01-30T19:42:50;65302.09;;;1.22;100.00
37132;BME280;23035;50.032;21.978;2023-01-30T19:48:01;65225.16;;;0.53;100.00
37132;BME280;23035;50.032;21.978;2023-01-30T19:53:06;65210.47;;;0.32;100.00
37132;BME280;23035;50.032;21.978;2023-01-30T19:58:13;65193.97;;;0.28;100.00
37132;BME280;23035;50.032;21.978;2023-01-30T20:03:18;65287.91;;;1.13;100.00
37132;BME280;23035;50.032;21.978;2023-01-30T20:08:23;65192.19;;;0.21;100.00
37132;BME280;23035;50.032;21.978;2023-01-30T20:13:37;65202.28;;;0.31;100.00
37132;BME280;23035;50.032;21.978;2023-01-30T20:18:41;65171.03;;;0.04;100.00
37132;BME280;23035;50.032;21.978;2023-01-30T20:23:48;65146.44;;;-0.22;100.00
37132;BME280;23035;50.032;21.978;2023-01-30T20:28:55;65233.13;;;0.61;100.00
37132;BME280;23035;50.032;21.978;2023-01-30T20:34:01;65202.69;;;0.29;100.00
37132;BME280;23035;50.032;21.978;2023-01-30T20:39:06;65194.41;;;0.26;100.00
37132;BME280;23035;50.032;21.978;2023-01-30T20:44:13;65186.31;;;0.16;100.00
37132;BME280;23035;50.032;21.978;2023-01-30T20:49:20;65193.25;;;0.22;100.00
37132;BME280;23035;50.032;21.978;2023-01-30T20:54:25;65246.84;;;0.71;100.00
37132;BME280;23035;50.032;21.978;2023-01-30T20:59:32;65306.44;;;1.28;100.00
37132;BME280;23035;50.032;21.978;2023-01-30T21:04:36;65253.75;;;0.78;100.00
37132;BME280;23035;50.032;21.978;2023-01-30T21:09:41;65242.59;;;0.67;100.00
37132;BME280;23035;50.032;21.978;2023-01-30T21:14:47;65222.38;;;0.48;100.00
37132;BME280;23035;50.032;21.978;2023-01-30T21:19:52;65221.44;;;0.49;100.00
37132;BME280;23035;50.032;21.978;2023-01-30T21:24:57;65261.97;;;0.91;100.00
37132;BME280;23035;50.032;21.978;2023-01-30T21:30:04;65195.78;;;0.22;100.00
37132;BME280;23035;50.032;21.978;2023-01-30T21:35:12;65283.97;;;1.04;100.00
37132;BME280;23035;50.032;21.978;2023-01-30T21:40:16;65270.88;;;0.97;100.00
37132;BME280;23035;50.032;21.978;2023-01-30T21:45:40;65337.41;;;1.60;100.00
37132;BME280;23035;50.032;21.978;2023-01-30T21:50:45;65267.69;;;0.94;100.00
37132;BME280;23035;50.032;21.978;2023-01-30T21:55:52;65296.75;;;1.17;100.00
37132;BME280;23035;50.032;21.978;2023-01-30T22:01:04;65321.13;;;1.37;100.00
37132;BME280;23035;50.032;21.978;2023-01-30T22:06:10;65236.75;;;0.62;100.00
37132;BME280;23035;50.032;21.978;2023-01-30T22:11:16;65311.13;;;1.30;100.00
37132;BME280;23035;50.032;21.978;2023-01-30T22:16:24;65291.09;;;1.16;100.00
37132;BME280;23035;50.032;21.978;2023-01-30T22:21:31;65317.63;;;1.39;100.00
37132;BME280;23035;50.032;21.978;2023-01-30T22:26:37;65313.44;;;1.37;100.00
37132;BME280;23035;50.032;21.978;2023-01-30T22:31:45;65358.09;;;1.78;100.00
37132;BME280;23035;50.032;21.978;2023-01-30T22:36:50;65293.66;;;1.16;100.00
37132;BME280;23035;50.032;21.978;2023-01-30T22:41:55;65311.13;;;1.30;100.00
37132;BME280;23035;50.032;21.978;2023-01-30T22:47:01;65343.69;;;1.64;100.00
37132;BME280;23035;50.032;21.978;2023-01-30T22:52:06;65306.34;;;1.26;100.00
37132;BME280;23035;50.032;21.978;2023-01-30T22:57:10;65317.81;;;1.44;100.00
37132;BME280;23035;50.032;21.978;2023-01-30T23:02:17;65280.03;;;1.08;100.00
37132;BME280;23035;50.032;21.978;2023-01-30T23:07:21;65259.28;;;0.88;100.00
37132;BME280;23035;50.032;21.978;2023-01-30T23:12:26;65225.69;;;0.53;100.00
37132;BME280;23035;50.032;21.978;2023-01-30T23:17:55;65229.91;;;0.57;100.00
37132;BME280;23035;50.032;21.978;2023-01-30T23:23:16;65264.94;;;0.89;100.00
37132;BME280;23035;50.032;21.978;2023-01-30T23:28:21;65309.63;;;1.31;100.00
37132;BME280;23035;50.032;21.978;2023-01-30T23:33:27;65327.75;;;1.49;100.00
37132;BME280;23035;50.032;21.978;2023-01-30T23:38:32;65265.13;;;0.94;100.00
37132;BME280;23035;50.032;21.978;2023-01-30T23:43:38;65297.41;;;1.20;100.00
37132;BME280;23035;50.032;21.978;2023-01-30T23:48:45;65291.53;;;1.14;100.00
37132;BME280;23035;50.032;21.978;2023-01-30T23:53:52;65289.94;;;1.12;100.00
37132;BME280;23035;50.032;21.978;2023-01-30T23:58:57;65259.84;;;0.89;100.00
